臺北飛航情報區 - 海峽席

METAR RCTP 161930Z 05013KT 9999 FEW006 BKN010 BKN030 18/17 Q1012 NOSIG RMK A2991(J)=

站台狀態:Online
最後更新:2022-05-17 03:30:02